sensor_id;sensor_type;location;lat;lon;timestamp;pressure;altitude;pressure_sealevel;temperature;humidity
26043;BME280;13818;52.156;5.382;2022-12-20T00:00:42;101020.00;;;10.15;100.00
26043;BME280;13818;52.156;5.382;2022-12-20T00:03:10;101012.47;;;10.04;100.00
26043;BME280;13818;52.156;5.382;2022-12-20T00:05:36;101011.25;;;10.11;100.00
26043;BME280;13818;52.156;5.382;2022-12-20T00:08:03;101005.69;;;10.17;100.00
26043;BME280;13818;52.156;5.382;2022-12-20T00:10:29;101024.47;;;10.14;100.00
26043;BME280;13818;52.156;5.382;2022-12-20T00:12:56;101014.91;;;10.08;100.00
26043;BME280;13818;52.156;5.382;2022-12-20T00:15:22;101015.56;;;10.15;100.00
26043;BME280;13818;52.156;5.382;2022-12-20T00:17:49;101017.00;;;10.22;100.00
26043;BME280;13818;52.156;5.382;2022-12-20T00:20:17;101014.22;;;10.25;100.00
26043;BME280;13818;52.156;5.382;2022-12-20T00:22:44;101023.81;;;10.30;100.00
26043;BME280;13818;52.156;5.382;2022-12-20T00:25:10;101018.41;;;10.31;100.00
26043;BME280;13818;52.156;5.382;2022-12-20T00:27:36;101022.72;;;10.35;100.00
26043;BME280;13818;52.156;5.382;2022-12-20T00:30:04;101010.16;;;10.39;100.00
26043;BME280;13818;52.156;5.382;2022-12-20T00:32:31;101003.88;;;10.40;100.00
26043;BME280;13818;52.156;5.382;2022-12-20T00:34:58;101014.53;;;10.40;100.00
26043;BME280;13818;52.156;5.382;2022-12-20T00:37:25;101009.34;;;10.37;100.00
26043;BME280;13818;52.156;5.382;2022-12-20T00:39:52;101002.84;;;10.44;100.00
26043;BME280;13818;52.156;5.382;2022-12-20T00:42:18;100999.50;;;10.39;100.00
26043;BME280;13818;52.156;5.382;2022-12-20T00:44:45;100993.88;;;10.45;100.00
26043;BME280;13818;52.156;5.382;2022-12-20T00:47:11;100990.34;;;10.45;100.00
26043;BME280;13818;52.156;5.382;2022-12-20T00:49:39;100988.34;;;10.50;100.00
26043;BME280;13818;52.156;5.382;2022-12-20T00:52:05;100993.84;;;10.47;100.00
26043;BME280;13818;52.156;5.382;2022-12-20T00:54:33;101001.50;;;10.54;100.00
26043;BME280;13818;52.156;5.382;2022-12-20T00:57:00;101008.75;;;10.51;100.00
26043;BME280;13818;52.156;5.382;2022-12-20T00:59:26;101018.16;;;10.60;100.00
26043;BME280;13818;52.156;5.382;2022-12-20T01:01:53;100994.16;;;10.60;100.00
26043;BME280;13818;52.156;5.382;2022-12-20T01:04:19;101000.50;;;10.57;100.00
26043;BME280;13818;52.156;5.382;2022-12-20T01:06:46;100998.56;;;10.61;100.00
26043;BME280;13818;52.156;5.382;2022-12-20T01:09:12;101002.09;;;10.61;100.00
26043;BME280;13818;52.156;5.382;2022-12-20T01:11:40;100999.50;;;10.60;100.00
26043;BME280;13818;52.156;5.382;2022-12-20T01:14:10;100998.41;;;10.64;100.00
26043;BME280;13818;52.156;5.382;2022-12-20T01:16:38;101005.56;;;10.63;100.00
26043;BME280;13818;52.156;5.382;2022-12-20T01:19:06;100994.97;;;10.62;100.00
26043;BME280;13818;52.156;5.382;2022-12-20T01:21:33;101001.16;;;10.62;100.00
26043;BME280;13818;52.156;5.382;2022-12-20T01:24:00;101002.81;;;10.65;100.00
26043;BME280;13818;52.156;5.382;2022-12-20T01:26:28;100998.34;;;10.65;100.00
26043;BME280;13818;52.156;5.382;2022-12-20T01:28:57;101005.56;;;10.63;100.00
26043;BME280;13818;52.156;5.382;2022-12-20T01:31:25;101001.09;;;10.64;100.00
26043;BME280;13818;52.156;5.382;2022-12-20T01:33:52;101001.09;;;10.64;100.00
26043;BME280;13818;52.156;5.382;2022-12-20T01:36:21;101011.16;;;10.57;100.00
26043;BME280;13818;52.156;5.382;2022-12-20T01:38:49;101006.50;;;10.41;100.00
26043;BME280;13818;52.156;5.382;2022-12-20T01:41:18;100995.88;;;10.40;100.00
26043;BME280;13818;52.156;5.382;2022-12-20T01:43:48;101001.34;;;10.37;100.00
26043;BME280;13818;52.156;5.382;2022-12-20T01:46:16;100993.84;;;10.24;100.00
26043;BME280;13818;52.156;5.382;2022-12-20T01:48:47;100994.78;;;10.23;100.00
26043;BME280;13818;52.156;5.382;2022-12-20T01:51:16;100988.78;;;10.18;100.00
26043;BME280;13818;52.156;5.382;2022-12-20T01:53:44;100977.84;;;10.04;100.00
26043;BME280;13818;52.156;5.382;2022-12-20T01:56:11;101000.94;;;10.03;100.00
26043;BME280;13818;52.156;5.382;2022-12-20T01:58:38;100979.69;;;10.02;100.00
26043;BME280;13818;52.156;5.382;2022-12-20T02:01:05;100975.00;;;9.86;100.00
26043;BME280;13818;52.156;5.382;2022-12-20T02:03:33;100974.09;;;9.87;100.00
26043;BME280;13818;52.156;5.382;2022-12-20T02:06:13;100966.22;;;9.84;100.00
26043;BME280;13818;52.156;5.382;2022-12-20T02:08:41;100974.28;;;9.83;100.00
26043;BME280;13818;52.156;5.382;2022-12-20T02:11:20;100972.59;;;9.80;100.00
26043;BME280;13818;52.156;5.382;2022-12-20T02:13:57;100969.88;;;9.82;100.00
26043;BME280;13818;52.156;5.382;2022-12-20T02:16:30;100967.13;;;9.83;100.00
26043;BME280;13818;52.156;5.382;2022-12-20T02:19:09;100957.72;;;9.74;100.00
26043;BME280;13818;52.156;5.382;2022-12-20T02:21:42;100954.97;;;9.77;100.00
26043;BME280;13818;52.156;5.382;2022-12-20T02:24:46;100955.78;;;9.80;100.00
26043;BME280;13818;52.156;5.382;2022-12-20T02:27:36;100953.38;;;9.73;100.00
26043;BME280;13818;52.156;5.382;2022-12-20T02:30:10;100945.56;;;9.69;100.00
26043;BME280;13818;52.156;5.382;2022-12-20T02:32:41;100949.28;;;9.65;100.00
26043;BME280;13818;52.156;5.382;2022-12-20T02:35:10;100954.59;;;9.65;100.00
26043;BME280;13818;52.156;5.382;2022-12-20T02:37:46;100964.13;;;9.70;100.00
26043;BME280;13818;52.156;5.382;2022-12-20T02:40:14;100954.38;;;9.69;100.00
26043;BME280;13818;52.156;5.382;2022-12-20T02:42:43;100944.63;;;9.70;100.00
26043;BME280;13818;52.156;5.382;2022-12-20T02:45:12;100954.16;;;9.75;100.00
26043;BME280;13818;52.156;5.382;2022-12-20T02:47:47;100941.81;;;9.73;100.00
26043;BME280;13818;52.156;5.382;2022-12-20T02:50:16;100945.47;;;9.70;100.00
26043;BME280;13818;52.156;5.382;2022-12-20T02:52:44;100940.91;;;9.74;100.00
26043;BME280;13818;52.156;5.382;2022-12-20T02:55:10;100933.25;;;9.66;100.00
26043;BME280;13818;52.156;5.382;2022-12-20T02:57:43;100942.16;;;9.65;100.00
26043;BME280;13818;52.156;5.382;2022-12-20T03:00:17;100931.25;;;9.71;100.00
26043;BME280;13818;52.156;5.382;2022-12-20T03:02:46;100933.72;;;9.76;100.00
26043;BME280;13818;52.156;5.382;2022-12-20T03:05:32;100934.50;;;9.78;100.00
26043;BME280;13818;52.156;5.382;2022-12-20T03:08:00;100942.50;;;9.78;100.00
26043;BME280;13818;52.156;5.382;2022-12-20T03:10:27;100932.84;;;9.75;100.00
26043;BME280;13818;52.156;5.382;2022-12-20T03:12:53;100921.59;;;9.69;100.00
26043;BME280;13818;52.156;5.382;2022-12-20T03:15:21;100927.53;;;9.75;100.00
26043;BME280;13818;52.156;5.382;2022-12-20T03:17:48;100942.72;;;9.73;100.00
26043;BME280;13818;52.156;5.382;2022-12-20T03:20:14;100938.09;;;9.77;100.00
26043;BME280;13818;52.156;5.382;2022-12-20T03:22:41;100939.59;;;9.84;100.00
26043;BME280;13818;52.156;5.382;2022-12-20T03:25:08;100934.41;;;9.81;100.00
26043;BME280;13818;52.156;5.382;2022-12-20T03:27:34;100919.97;;;9.87;100.00
26043;BME280;13818;52.156;5.382;2022-12-20T03:30:00;100924.38;;;9.88;100.00
26043;BME280;13818;52.156;5.382;2022-12-20T03:32:28;100928.75;;;9.89;100.00
26043;BME280;13818;52.156;5.382;2022-12-20T03:34:55;100922.44;;;9.91;100.00
26043;BME280;13818;52.156;5.382;2022-12-20T03:37:21;100927.75;;;9.91;100.00
26043;BME280;13818;52.156;5.382;2022-12-20T03:39:48;100939.94;;;9.97;100.00
26043;BME280;13818;52.156;5.382;2022-12-20T03:42:14;100928.56;;;9.93;100.00
26043;BME280;13818;52.156;5.382;2022-12-20T03:44:41;100925.94;;;9.92;100.00
26043;BME280;13818;52.156;5.382;2022-12-20T03:47:07;100909.88;;;9.95;100.00
26043;BME280;13818;52.156;5.382;2022-12-20T03:49:36;100905.47;;;9.94;100.00
26043;BME280;13818;52.156;5.382;2022-12-20T03:52:02;100907.94;;;9.99;100.00
26043;BME280;13818;52.156;5.382;2022-12-20T03:54:29;100912.19;;;10.03;100.00
26043;BME280;13818;52.156;5.382;2022-12-20T03:56:55;100908.53;;;10.05;100.00
26043;BME280;13818;52.156;5.382;2022-12-20T03:59:22;100907.59;;;10.06;100.00
26043;BME280;13818;52.156;5.382;2022-12-20T04:01:48;100909.28;;;10.09;100.00
26043;BME280;13818;52.156;5.382;2022-12-20T04:04:14;100896.88;;;10.08;100.00
26043;BME280;13818;52.156;5.382;2022-12-20T04:06:42;100900.28;;;10.12;100.00
26043;BME280;13818;52.156;5.382;2022-12-20T04:09:09;100894.81;;;10.15;100.00
26043;BME280;13818;52.156;5.382;2022-12-20T04:11:36;100880.75;;;10.11;100.00
26043;BME280;13818;52.156;5.382;2022-12-20T04:14:03;100891.16;;;10.17;100.00
26043;BME280;13818;52.156;5.382;2022-12-20T04:16:30;100886.91;;;10.13;100.00
26043;BME280;13818;52.156;5.382;2022-12-20T04:18:58;100897.44;;;10.16;100.00
26043;BME280;13818;52.156;5.382;2022-12-20T04:21:26;100878.56;;;10.21;100.00
26043;BME280;13818;52.156;5.382;2022-12-20T04:23:55;100884.63;;;10.24;100.00
26043;BME280;13818;52.156;5.382;2022-12-20T04:26:22;100877.63;;;10.22;100.00
26043;BME280;13818;52.156;5.382;2022-12-20T04:28:49;100881.97;;;10.24;100.00
26043;BME280;13818;52.156;5.382;2022-12-20T04:31:15;100867.56;;;10.29;100.00
26043;BME280;13818;52.156;5.382;2022-12-20T04:33:41;100869.38;;;10.28;100.00
26043;BME280;13818;52.156;5.382;2022-12-20T04:36:08;100877.94;;;10.35;100.00
26043;BME280;13818;52.156;5.382;2022-12-20T04:38:35;100869.06;;;10.36;100.00
26043;BME280;13818;52.156;5.382;2022-12-20T04:41:03;100869.19;;;10.33;100.00
26043;BME280;13818;52.156;5.382;2022-12-20T04:43:29;100867.28;;;10.36;100.00
26043;BME280;13818;52.156;5.382;2022-12-20T04:45:56;100869.88;;;10.38;100.00
26043;BME280;13818;52.156;5.382;2022-12-20T04:48:24;100874.03;;;10.44;100.00
26043;BME280;13818;52.156;5.382;2022-12-20T04:50:52;100877.44;;;10.47;100.00
26043;BME280;13818;52.156;5.382;2022-12-20T04:53:19;100877.25;;;10.52;100.00
26043;BME280;13818;52.156;5.382;2022-12-20T04:56:05;100869.38;;;10.49;100.00
26043;BME280;13818;52.156;5.382;2022-12-20T04:58:31;100868.22;;;10.54;100.00
26043;BME280;13818;52.156;5.382;2022-12-20T05:00:58;100869.25;;;10.52;100.00
26043;BME280;13818;52.156;5.382;2022-12-20T05:03:25;100866.31;;;10.58;100.00
26043;BME280;13818;52.156;5.382;2022-12-20T05:05:52;100869.03;;;10.56;100.00
26043;BME280;13818;52.156;5.382;2022-12-20T05:08:18;100869.97;;;10.55;100.00
26043;BME280;13818;52.156;5.382;2022-12-20T05:10:46;100865.00;;;10.48;100.00
26043;BME280;13818;52.156;5.382;2022-12-20T05:13:14;100867.66;;;10.48;100.00
26043;BME280;13818;52.156;5.382;2022-12-20T05:15:41;100868.94;;;10.39;100.00
26043;BME280;13818;52.156;5.382;2022-12-20T05:18:08;100869.78;;;10.39;100.00
26043;BME280;13818;52.156;5.382;2022-12-20T05:20:34;100853.97;;;10.35;100.00
26043;BME280;13818;52.156;5.382;2022-12-20T05:23:01;100856.63;;;10.36;100.00
26043;BME280;13818;52.156;5.382;2022-12-20T05:25:47;100850.41;;;10.36;100.00
26043;BME280;13818;52.156;5.382;2022-12-20T05:28:33;100854.91;;;10.34;100.00
26043;BME280;13818;52.156;5.382;2022-12-20T05:31:00;100837.97;;;10.36;100.00
26043;BME280;13818;52.156;5.382;2022-12-20T05:33:27;100836.00;;;10.40;100.00
26043;BME280;13818;52.156;5.382;2022-12-20T05:35:54;100830.06;;;10.33;100.00
26043;BME280;13818;52.156;5.382;2022-12-20T05:38:21;100831.00;;;10.32;100.00
26043;BME280;13818;52.156;5.382;2022-12-20T05:40:48;100829.25;;;10.31;100.00
26043;BME280;13818;52.156;5.382;2022-12-20T05:43:16;100820.50;;;10.29;100.00
26043;BME280;13818;52.156;5.382;2022-12-20T05:45:45;100830.75;;;10.38;100.00
26043;BME280;13818;52.156;5.382;2022-12-20T05:48:12;100822.00;;;10.35;100.00
26043;BME280;13818;52.156;5.382;2022-12-20T05:50:39;100810.44;;;10.36;100.00
26043;BME280;13818;52.156;5.382;2022-12-20T05:53:05;100812.28;;;10.34;100.00
26043;BME280;13818;52.156;5.382;2022-12-20T05:55:32;100801.69;;;10.32;100.00
26043;BME280;13818;52.156;5.382;2022-12-20T05:57:58;100789.13;;;10.36;100.00
26043;BME280;13818;52.156;5.382;2022-12-20T06:00:25;100795.34;;;10.36;100.00
26043;BME280;13818;52.156;5.382;2022-12-20T06:02:53;100789.19;;;10.34;100.00
26043;BME280;13818;52.156;5.382;2022-12-20T06:05:19;100788.03;;;10.40;100.00
26043;BME280;13818;52.156;5.382;2022-12-20T06:07:46;100783.59;;;10.40;100.00
26043;BME280;13818;52.156;5.382;2022-12-20T06:10:13;100766.53;;;10.45;100.00
26043;BME280;13818;52.156;5.382;2022-12-20T06:12:39;100761.13;;;10.46;100.00
26043;BME280;13818;52.156;5.382;2022-12-20T06:15:07;100765.69;;;10.44;100.00
26043;BME280;13818;52.156;5.382;2022-12-20T06:17:35;100763.66;;;10.49;100.00
26043;BME280;13818;52.156;5.382;2022-12-20T06:20:03;100772.38;;;10.53;100.00
26043;BME280;13818;52.156;5.382;2022-12-20T06:22:30;100776.81;;;10.52;100.00
26043;BME280;13818;52.156;5.382;2022-12-20T06:24:57;100772.94;;;10.60;100.00
26043;BME280;13818;52.156;5.382;2022-12-20T06:27:24;100788.78;;;10.63;100.00
26043;BME280;13818;52.156;5.382;2022-12-20T06:29:50;100791.59;;;10.60;100.00
26043;BME280;13818;52.156;5.382;2022-12-20T06:32:18;100785.97;;;10.66;100.00
26043;BME280;13818;52.156;5.382;2022-12-20T06:34:45;100792.75;;;10.73;100.00
26043;BME280;13818;52.156;5.382;2022-12-20T06:37:13;100793.44;;;10.77;100.00
26043;BME280;13818;52.156;5.382;2022-12-20T06:39:40;100790.66;;;10.80;100.00
26043;BME280;13818;52.156;5.382;2022-12-20T06:42:06;100791.59;;;10.79;100.00
26043;BME280;13818;52.156;5.382;2022-12-20T06:44:33;100791.28;;;10.85;100.00
26043;BME280;13818;52.156;5.382;2022-12-20T06:47:00;100790.44;;;10.84;100.00
26043;BME280;13818;52.156;5.382;2022-12-20T06:49:27;100785.97;;;10.85;100.00
26043;BME280;13818;52.156;5.382;2022-12-20T06:51:54;100780.63;;;10.85;100.00
26043;BME280;13818;52.156;5.382;2022-12-20T06:54:22;100775.13;;;10.88;100.00
26043;BME280;13818;52.156;5.382;2022-12-20T06:56:48;100791.28;;;10.85;100.00
26043;BME280;13818;52.156;5.382;2022-12-20T06:59:14;100779.78;;;10.84;100.00
26043;BME280;13818;52.156;5.382;2022-12-20T07:01:41;100775.22;;;10.86;100.00
26043;BME280;13818;52.156;5.382;2022-12-20T07:04:07;100777.88;;;10.86;100.00
26043;BME280;13818;52.156;5.382;2022-12-20T07:06:34;100771.69;;;10.86;100.00
26043;BME280;13818;52.156;5.382;2022-12-20T07:09:00;100774.06;;;10.92;100.00
26043;BME280;13818;52.156;5.382;2022-12-20T07:11:28;100783.78;;;10.93;100.00
26043;BME280;13818;52.156;5.382;2022-12-20T07:13:55;100775.81;;;10.93;100.00
26043;BME280;13818;52.156;5.382;2022-12-20T07:16:23;100782.78;;;10.96;100.00
26043;BME280;13818;52.156;5.382;2022-12-20T07:18:49;100778.94;;;11.01;100.00
26043;BME280;13818;52.156;5.382;2022-12-20T07:21:16;100782.69;;;10.97;100.00
26043;BME280;13818;52.156;5.382;2022-12-20T07:23:43;100775.25;;;11.04;100.00
26043;BME280;13818;52.156;5.382;2022-12-20T07:26:10;100784.59;;;11.13;100.00
26043;BME280;13818;52.156;5.382;2022-12-20T07:28:39;100774.16;;;11.08;100.00
26043;BME280;13818;52.156;5.382;2022-12-20T07:31:05;100775.81;;;11.11;100.00
26043;BME280;13818;52.156;5.382;2022-12-20T07:33:32;100779.50;;;11.08;100.00
26043;BME280;13818;52.156;5.382;2022-12-20T07:36:00;100790.09;;;11.10;100.00
26043;BME280;13818;52.156;5.382;2022-12-20T07:38:26;100781.72;;;11.17;100.00
26043;BME280;13818;52.156;5.382;2022-12-20T07:40:53;100777.50;;;11.13;100.00
26043;BME280;13818;52.156;5.382;2022-12-20T07:43:19;100776.47;;;11.16;100.00
26043;BME280;13818;52.156;5.382;2022-12-20T07:45:47;100777.31;;;11.16;100.00
26043;BME280;13818;52.156;5.382;2022-12-20T07:48:14;100779.50;;;11.26;100.00
26043;BME280;13818;52.156;5.382;2022-12-20T07:50:40;100794.81;;;11.22;100.00
26043;BME280;13818;52.156;5.382;2022-12-20T07:53:08;100789.34;;;11.25;100.00
26043;BME280;13818;52.156;5.382;2022-12-20T07:55:35;100795.81;;;11.19;100.00
26043;BME280;13818;52.156;5.382;2022-12-20T07:58:05;100789.94;;;11.13;100.00
26043;BME280;13818;52.156;5.382;2022-12-20T08:00:33;100809.25;;;11.18;100.00
26043;BME280;13818;52.156;5.382;2022-12-20T08:03:05;100803.28;;;11.13;100.00
26043;BME280;13818;52.156;5.382;2022-12-20T08:05:32;100801.63;;;11.10;100.00
26043;BME280;13818;52.156;5.382;2022-12-20T08:08:00;100796.28;;;11.10;100.00
26043;BME280;13818;52.156;5.382;2022-12-20T08:10:28;100803.50;;;11.08;100.00
26043;BME280;13818;52.156;5.382;2022-12-20T08:12:55;100801.06;;;11.03;100.00
26043;BME280;13818;52.156;5.382;2022-12-20T08:15:22;100788.97;;;10.96;100.00
26043;BME280;13818;52.156;5.382;2022-12-20T08:17:49;100786.22;;;10.98;100.00
26043;BME280;13818;52.156;5.382;2022-12-20T08:20:17;100779.94;;;10.99;100.00
26043;BME280;13818;52.156;5.382;2022-12-20T08:22:44;100772.66;;;11.02;100.00
26043;BME280;13818;52.156;5.382;2022-12-20T08:25:11;100786.22;;;10.98;100.00
26043;BME280;13818;52.156;5.382;2022-12-20T08:27:37;100786.50;;;10.91;100.00
26043;BME280;13818;52.156;5.382;2022-12-20T08:30:06;100779.47;;;10.90;100.00
26043;BME280;13818;52.156;5.382;2022-12-20T08:32:34;100788.16;;;10.94;100.00
26043;BME280;13818;52.156;5.382;2022-12-20T08:35:01;100775.81;;;10.93;100.00
26043;BME280;13818;52.156;5.382;2022-12-20T08:37:29;100787.03;;;11.00;100.00
26043;BME280;13818;52.156;5.382;2022-12-20T08:39:55;100791.41;;;11.01;100.00
26043;BME280;13818;52.156;5.382;2022-12-20T08:42:22;100782.63;;;10.99;100.00
26043;BME280;13818;52.156;5.382;2022-12-20T08:44:48;100777.59;;;10.93;100.00
26043;BME280;13818;52.156;5.382;2022-12-20T08:47:15;100782.28;;;10.87;100.00
26043;BME280;13818;52.156;5.382;2022-12-20T08:49:41;100787.41;;;10.92;100.00
26043;BME280;13818;52.156;5.382;2022-12-20T08:52:07;100781.06;;;10.95;100.00
26043;BME280;13818;52.156;5.382;2022-12-20T08:54:35;100785.50;;;10.94;100.00
26043;BME280;13818;52.156;5.382;2022-12-20T08:57:02;100775.84;;;10.91;100.00
26043;BME280;13818;52.156;5.382;2022-12-20T08:59:28;100780.47;;;10.88;100.00
26043;BME280;13818;52.156;5.382;2022-12-20T09:01:55;100780.25;;;10.93;100.00
26043;BME280;13818;52.156;5.382;2022-12-20T09:04:21;100784.81;;;10.90;100.00
26043;BME280;13818;52.156;5.382;2022-12-20T09:06:48;100778.69;;;10.88;100.00
26043;BME280;13818;52.156;5.382;2022-12-20T09:09:14;100781.09;;;10.76;100.00
26043;BME280;13818;52.156;5.382;2022-12-20T09:11:42;100786.13;;;10.82;100.00
26043;BME280;13818;52.156;5.382;2022-12-20T09:14:08;100780.78;;;10.82;100.00
26043;BME280;13818;52.156;5.382;2022-12-20T09:16:35;100783.78;;;10.74;100.00
26043;BME280;13818;52.156;5.382;2022-12-20T09:19:02;100785.97;;;10.66;100.00
26043;BME280;13818;52.156;5.382;2022-12-20T09:21:28;100785.97;;;10.66;100.00
26043;BME280;13818;52.156;5.382;2022-12-20T09:23:55;100791.53;;;10.61;100.00
26043;BME280;13818;52.156;5.382;2022-12-20T09:26:23;100788.72;;;10.64;100.00
26043;BME280;13818;52.156;5.382;2022-12-20T09:28:51;100784.25;;;10.65;100.00
26043;BME280;13818;52.156;5.382;2022-12-20T09:31:20;100778.34;;;10.58;100.00
26043;BME280;13818;52.156;5.382;2022-12-20T09:33:47;100781.00;;;10.58;100.00
26043;BME280;13818;52.156;5.382;2022-12-20T09:36:15;100791.59;;;10.60;100.00
26043;BME280;13818;52.156;5.382;2022-12-20T09:38:42;100795.19;;;10.58;100.00
26043;BME280;13818;52.156;5.382;2022-12-20T09:41:18;100782.66;;;10.61;100.00
26043;BME280;13818;52.156;5.382;2022-12-20T09:43:48;100789.66;;;10.63;100.00
26043;BME280;13818;52.156;5.382;2022-12-20T09:46:16;100796.00;;;10.61;100.00
26043;BME280;13818;52.156;5.382;2022-12-20T09:48:43;100796.75;;;10.63;100.00
26043;BME280;13818;52.156;5.382;2022-12-20T09:51:21;100803.75;;;10.65;100.00
26043;BME280;13818;52.156;5.382;2022-12-20T09:54:04;100802.97;;;10.63;100.00
26043;BME280;13818;52.156;5.382;2022-12-20T09:56:35;100799.38;;;10.64;100.00
26043;BME280;13818;52.156;5.382;2022-12-20T09:59:04;100795.84;;;10.64;100.00
26043;BME280;13818;52.156;5.382;2022-12-20T10:01:33;100794.19;;;10.61;100.00
26043;BME280;13818;52.156;5.382;2022-12-20T10:04:03;100810.19;;;10.61;100.00
26043;BME280;13818;52.156;5.382;2022-12-20T10:06:41;100798.50;;;10.64;100.00
26043;BME280;13818;52.156;5.382;2022-12-20T10:09:21;100797.78;;;10.60;100.00
26043;BME280;13818;52.156;5.382;2022-12-20T10:11:58;100787.84;;;10.64;100.00
26043;BME280;13818;52.156;5.382;2022-12-20T10:14:40;100788.00;;;10.61;100.00
26043;BME280;13818;52.156;5.382;2022-12-20T10:17:13;100784.31;;;10.63;100.00
26043;BME280;13818;52.156;5.382;2022-12-20T10:19:59;100789.13;;;10.55;100.00
26043;BME280;13818;52.156;5.382;2022-12-20T10:22:31;100778.06;;;10.64;100.00
26043;BME280;13818;52.156;5.382;2022-12-20T10:25:13;100787.63;;;10.49;100.00
26043;BME280;13818;52.156;5.382;2022-12-20T10:27:40;100787.06;;;10.62;100.00
26043;BME280;13818;52.156;5.382;2022-12-20T10:30:11;100788.72;;;10.64;100.00
26043;BME280;13818;52.156;5.382;2022-12-20T10:32:41;100788.47;;;10.69;100.00
26043;BME280;13818;52.156;5.382;2022-12-20T10:35:21;100792.69;;;10.74;100.00
26043;BME280;13818;52.156;5.382;2022-12-20T10:37:56;100779.47;;;10.71;100.00
26043;BME280;13818;52.156;5.382;2022-12-20T10:40:25;100771.44;;;10.73;100.00
26043;BME280;13818;52.156;5.382;2022-12-20T10:42:52;100778.16;;;10.80;100.00
26043;BME280;13818;52.156;5.382;2022-12-20T10:45:27;100780.34;;;10.72;100.00
26043;BME280;13818;52.156;5.382;2022-12-20T10:48:02;100780.13;;;10.77;100.00
26043;BME280;13818;52.156;5.382;2022-12-20T10:53:27;100773.00;;;10.77;100.00
26043;BME280;13818;52.156;5.382;2022-12-20T10:56:11;100746.63;;;10.71;100.00
26043;BME280;13818;52.156;5.382;2022-12-20T10:58:51;100747.09;;;10.62;100.00
26043;BME280;13818;52.156;5.382;2022-12-20T11:01:36;100756.72;;;10.83;100.00
26043;BME280;13818;52.156;5.382;2022-12-20T11:04:27;100761.63;;;10.73;100.00
26043;BME280;13818;52.156;5.382;2022-12-20T11:07:27;100749.94;;;10.76;100.00
26043;BME280;13818;52.156;5.382;2022-12-20T11:09:59;100744.59;;;10.76;100.00
26043;BME280;13818;52.156;5.382;2022-12-20T11:12:29;100756.78;;;10.82;100.00
26043;BME280;13818;52.156;5.382;2022-12-20T11:17:48;100750.44;;;10.84;100.00
26043;BME280;13818;52.156;5.382;2022-12-20T11:20:37;100746.81;;;10.85;100.00
26043;BME280;13818;52.156;5.382;2022-12-20T11:23:21;100744.09;;;10.87;100.00
26043;BME280;13818;52.156;5.382;2022-12-20T11:26:11;100743.00;;;10.91;100.00
26043;BME280;13818;52.156;5.382;2022-12-20T11:28:52;100743.78;;;10.93;100.00
26043;BME280;13818;52.156;5.382;2022-12-20T11:31:27;100745.78;;;10.88;100.00
26043;BME280;13818;52.156;5.382;2022-12-20T11:34:18;100749.13;;;10.93;100.00
26043;BME280;13818;52.156;5.382;2022-12-20T11:37:16;100741.13;;;10.93;100.00
26043;BME280;13818;52.156;5.382;2022-12-20T11:42:46;100745.75;;;10.89;100.00
26043;BME280;13818;52.156;5.382;2022-12-20T11:45:22;100738.97;;;10.82;100.00
26043;BME280;13818;52.156;5.382;2022-12-20T11:48:17;100740.72;;;10.83;100.00
26043;BME280;13818;52.156;5.382;2022-12-20T11:51:00;100732.41;;;10.89;100.00
26043;BME280;13818;52.156;5.382;2022-12-20T11:53:38;100728.81;;;10.90;100.00
26043;BME280;13818;52.156;5.382;2022-12-20T11:56:07;100739.41;;;10.92;100.00
26043;BME280;13818;52.156;5.382;2022-12-20T11:58:54;100732.41;;;10.89;100.00
26043;BME280;13818;52.156;5.382;2022-12-20T12:01:28;100731.47;;;10.90;100.00
26043;BME280;13818;52.156;5.382;2022-12-20T12:04:04;100737.59;;;10.93;100.00
26043;BME280;13818;52.156;5.382;2022-12-20T12:06:40;100739.63;;;10.87;100.00
26043;BME280;13818;52.156;5.382;2022-12-20T12:09:16;100733.19;;;10.91;100.00
26043;BME280;13818;52.156;5.382;2022-12-20T12:11:51;100732.34;;;10.91;100.00
26043;BME280;13818;52.156;5.382;2022-12-20T12:14:28;100740.03;;;10.97;100.00
26043;BME280;13818;52.156;5.382;2022-12-20T12:17:00;100732.03;;;10.97;100.00
26043;BME280;13818;52.156;5.382;2022-12-20T12:19:33;100727.47;;;10.99;100.00
26043;BME280;13818;52.156;5.382;2022-12-20T12:22:09;100725.97;;;10.94;100.00
26043;BME280;13818;52.156;5.382;2022-12-20T12:24:47;100721.59;;;10.93;100.00
26043;BME280;13818;52.156;5.382;2022-12-20T12:27:24;100716.88;;;10.98;100.00
26043;BME280;13818;52.156;5.382;2022-12-20T12:29:52;100713.88;;;10.86;100.00
26043;BME280;13818;52.156;5.382;2022-12-20T12:32:25;100719.56;;;10.98;100.00
26043;BME280;13818;52.156;5.382;2022-12-20T12:35:14;100718.47;;;11.02;100.00
26043;BME280;13818;52.156;5.382;2022-12-20T12:38:20;100723.94;;;10.99;100.00
26043;BME280;13818;52.156;5.382;2022-12-20T12:44:04;100720.19;;;11.03;100.00
26043;BME280;13818;52.156;5.382;2022-12-20T12:46:54;100714.84;;;11.03;100.00
26043;BME280;13818;52.156;5.382;2022-12-20T12:49:27;100713.06;;;11.03;100.00
26043;BME280;13818;52.156;5.382;2022-12-20T12:51:58;100722.72;;;11.06;100.00
26043;BME280;13818;52.156;5.382;2022-12-20T12:54:28;100730.09;;;11.01;100.00
26043;BME280;13818;52.156;5.382;2022-12-20T12:57:00;100728.03;;;11.06;100.00
26043;BME280;13818;52.156;5.382;2022-12-20T12:59:52;100736.34;;;11.00;100.00
26043;BME280;13818;52.156;5.382;2022-12-20T13:02:32;100733.50;;;11.03;100.00
26043;BME280;13818;52.156;5.382;2022-12-20T13:05:29;100732.34;;;11.09;100.00
26043;BME280;13818;52.156;5.382;2022-12-20T13:08:02;100727.75;;;11.12;100.00